Norah Head Lighthouse, Australia
Current Conditions -  °F | °C
As of 7:00 PM on Monday 24 Nov 2014 (Local Time) from YWLM Reporting Station
Thunderstorm Thunderstorm  
Wind Chill: 75°   Ceiling: 10000
Heat Index: 75°   Visibility: 5mi
Dew Point: 70°   Wind: 9mph
Humidity: 83%   Direction: 90°E
Pressure: 29.74"   Gusts: NA
Location:  33.27°S, 151.57°E
Report Text: YWLM 240800Z 09008KT 8000 VCTS FEW008 BKN100 FEW050CB 24/21 Q1007
Loading
Personal Weather Stations






























Interactive Weather Map New forecast layout! Learn more

10-Day Weather Forecast

Advertisements
Track Severe Weather on mobile